Time;durP1;ratioP1;P1;durP2;ratioP2;P2;SDS_P1;SDS_P2;PMS_P1;PMS_P2;Temp;Humidity;BMP_temperature;BMP_pressure;BME280_temperature;BME280_humidity;BME280_pressure;Samples;Min_cycle;Max_cycle;Signal;HPM_P1;HPM_P2
2021/08/22 00:01:31;;;;;;;36.70;33.37;;;;;;;20.14;74.69;101578.47;5083891;28;20272;-77
2021/08/22 00:03:57;;;;;;;35.23;32.17;;;;;;;20.30;74.25;101585.53;5084635;28;20251;-76
2021/08/22 00:06:25;;;;;;;37.10;33.60;;;;;;;20.34;75.22;101583.13;5084014;28;20213;-76
2021/08/22 00:08:51;;;;;;;41.80;37.70;;;;;;;20.72;74.13;101581.78;5083480;28;20691;-76
2021/08/22 00:11:17;;;;;;;40.17;36.13;;;;;;;20.96;73.13;101579.28;5084363;28;20216;-76
2021/08/22 00:13:44;;;;;;;48.50;43.27;;;;;;;20.82;73.88;101576.34;5084341;28;20257;-76
2021/08/22 00:16:10;;;;;;;40.43;36.43;;;;;;;20.90;73.04;101583.94;5083061;28;20254;-76
2021/08/22 00:18:37;;;;;;;47.07;41.47;;;;;;;20.77;73.69;101574.44;5085006;28;20320;-76
2021/08/22 00:21:03;;;;;;;43.50;39.10;;;;;;;20.74;74.36;101572.28;5084374;28;20273;-76
2021/08/22 00:23:32;;;;;;;43.70;38.80;;;;;;;20.76;74.09;101570.09;5083513;28;20634;-77
2021/08/22 00:25:58;;;;;;;60.97;49.63;;;;;;;20.55;75.92;101560.31;5083734;28;20287;-77
2021/08/22 00:28:25;;;;;;;44.63;40.13;;;;;;;20.53;75.55;101565.22;5082710;28;20232;-77
2021/08/22 00:30:51;;;;;;;45.53;40.93;;;;;;;20.62;75.21;101566.31;5086371;28;20267;-77
2021/08/22 00:33:17;;;;;;;62.63;50.67;;;;;;;20.47;76.97;101553.56;5082318;28;20208;-77
2021/08/22 00:35:44;;;;;;;60.10;48.67;;;;;;;20.55;76.16;101549.47;5082818;28;20702;-77
2021/08/22 00:38:10;;;;;;;59.77;47.33;;;;;;;20.48;75.97;101543.53;5081820;28;20286;-77
2021/08/22 00:40:38;;;;;;;52.50;45.30;;;;;;;20.50;76.16;101542.16;5081433;28;20266;-77
2021/08/22 00:43:05;;;;;;;51.93;45.73;;;;;;;20.56;75.20;101543.75;5082147;28;20245;-77
2021/08/22 00:45:31;;;;;;;47.07;42.10;;;;;;;20.55;75.11;101546.75;5083900;28;20260;-77
2021/08/22 00:47:58;;;;;;;44.50;38.80;;;;;;;20.58;74.81;101546.19;5084522;28;20214;-77
2021/08/22 00:50:24;;;;;;;44.17;39.70;;;;;;;20.61;74.35;101537.53;5083134;28;20209;-77
2021/08/22 00:52:52;;;;;;;44.27;39.73;;;;;;;20.61;74.48;101545.69;5083817;28;20244;-77
2021/08/22 00:55:19;;;;;;;43.53;39.17;;;;;;;20.62;74.45;101539.16;5079103;28;20232;-77
2021/08/22 00:57:48;;;;;;;45.00;40.33;;;;;;;20.57;73.88;101531.81;5079938;28;20273;-77
2021/08/22 01:00:15;;;;;;;46.20;40.83;;;;;;;20.44;74.47;101523.41;5084190;28;20217;-77
2021/08/22 01:02:45;;;;;;;45.73;40.73;;;;;;;20.42;74.84;101528.31;5082962;28;20263;-77
2021/08/22 01:05:16;;;;;;;45.03;40.50;;;;;;;20.31;75.18;101515.78;5083248;28;20217;-77
2021/08/22 01:07:46;;;;;;;48.53;41.80;;;;;;;20.37;75.21;101518.25;5083609;28;20294;-76
2021/08/22 01:10:15;;;;;;;46.23;41.23;;;;;;;20.12;75.87;101510.09;5082592;28;20762;-76
2021/08/22 01:12:48;;;;;;;46.00;40.93;;;;;;;20.10;76.12;101510.38;5083428;28;20214;-76
2021/08/22 01:15:15;;;;;;;49.30;42.07;;;;;;;20.10;76.29;101510.38;5081232;28;20774;-77
2021/08/22 01:17:45;;;;;;;45.60;40.60;;;;;;;19.98;76.46;101505.19;5080682;28;20291;-77
2021/08/22 01:20:16;;;;;;;77.20;53.10;;;;;;;19.92;77.76;101510.88;5083265;28;20615;-77
2021/08/22 01:22:43;;;;;;;67.73;51.43;;;;;;;19.49;78.87;101504.78;5084314;28;20209;-77
2021/08/22 01:25:10;;;;;;;59.07;47.77;;;;;;;19.57;79.04;101508.91;5082911;28;20754;-77
2021/08/22 01:27:37;;;;;;;59.63;45.17;;;;;;;19.71;78.83;101504.59;5081972;28;20274;-77
2021/08/22 01:30:07;;;;;;;51.53;42.03;;;;;;;19.72;77.44;101500.81;5080956;28;20217;-77
2021/08/22 01:32:37;;;;;;;54.50;44.33;;;;;;;19.90;77.84;101503.00;5081747;28;20211;-77
2021/08/22 01:35:04;;;;;;;62.83;47.60;;;;;;;19.94;77.16;101506.78;5083627;28;20251;-76
2021/08/22 01:37:32;;;;;;;54.77;44.30;;;;;;;19.72;77.60;101502.72;5083279;28;20632;-76
2021/08/22 01:39:58;;;;;;;48.17;41.67;;;;;;;19.93;76.80;101504.34;5084220;28;20684;-76
2021/08/22 01:42:25;;;;;;;50.83;41.57;;;;;;;20.15;76.06;101502.22;5083703;28;20259;-76
2021/08/22 01:44:52;;;;;;;65.57;47.60;;;;;;;19.99;76.79;101500.59;5084473;28;20221;-76
2021/08/22 01:47:18;;;;;;;65.60;46.43;;;;;;;19.94;76.72;101497.84;5081167;28;20209;-76
2021/08/22 01:49:46;;;;;;;62.73;45.37;;;;;;;19.80;77.40;101500.25;5083731;28;20216;-76
2021/08/22 01:52:13;;;;;;;52.90;44.30;;;;;;;19.79;77.02;101498.63;5082689;28;20275;-75
2021/08/22 01:54:42;;;;;;;58.70;45.43;;;;;;;19.65;77.42;101498.34;5082521;28;20232;-75
2021/08/22 01:57:09;;;;;;;60.53;46.03;;;;;;;19.58;77.28;101489.66;5079873;28;20221;-75
2021/08/22 01:59:36;;;;;;;68.87;49.77;;;;;;;19.55;78.17;101495.59;5079124;28;21171;-75
2021/08/22 02:02:03;;;;;;;83.10;54.90;;;;;;;19.36;79.99;101484.41;5083107;28;20213;-75
2021/08/22 02:04:35;;;;;;;96.50;55.80;;;;;;;19.24;80.00;101485.72;5083676;28;20221;-75
2021/08/22 02:07:09;;;;;;;78.10;53.70;;;;;;;19.00;80.94;101491.56;5083497;28;20209;-75
2021/08/22 02:09:42;;;;;;;111.13;60.50;;;;;;;19.22;80.43;101490.59;5081446;28;20225;-75
2021/08/22 02:12:13;;;;;;;97.90;58.03;;;;;;;19.15;80.97;101488.09;5082286;28;20212;-75
2021/08/22 02:14:43;;;;;;;87.77;56.30;;;;;;;19.25;80.40;101481.91;5086520;28;20612;-75
2021/08/22 02:17:10;;;;;;;72.03;52.23;;;;;;;19.72;79.12;101481.84;5087582;28;20791;-75
2021/08/22 02:19:37;;;;;;;92.77;55.80;;;;;;;19.40;79.02;101484.69;5086062;28;20216;-75
2021/08/22 02:22:06;;;;;;;66.77;47.40;;;;;;;19.50;79.32;101483.91;5085983;28;20666;-75
2021/08/22 02:24:32;;;;;;;116.90;64.00;;;;;;;19.56;78.88;101480.97;5088079;28;20778;-75
2021/08/22 02:26:59;;;;;;;73.23;51.83;;;;;;;19.41;79.31;101481.69;5087915;28;20205;-75
2021/08/22 02:29:25;;;;;;;70.90;51.53;;;;;;;19.70;78.40;101473.16;5085372;28;20718;-75
2021/08/22 02:31:51;;;;;;;68.97;50.60;;;;;;;19.76;77.73;101468.53;5085683;28;20286;-75
2021/08/22 02:34:18;;;;;;;59.27;45.97;;;;;;;19.61;78.56;101466.63;5086666;28;20217;-75
2021/08/22 02:36:44;;;;;;;82.97;53.77;;;;;;;19.60;78.70;101473.13;5085100;28;20237;-75
2021/08/22 02:39:12;;;;;;;82.27;52.20;;;;;;;19.79;78.53;101476.13;5086180;28;20222;-75
2021/08/22 02:41:38;;;;;;;99.23;59.60;;;;;;;19.90;77.83;101470.47;5087422;28;20213;-75
2021/08/22 02:44:05;;;;;;;87.80;54.90;;;;;;;19.98;77.28;101458.28;5085759;28;20627;-76
2021/08/22 02:46:31;;;;;;;56.23;44.87;;;;;;;19.97;76.32;101464.78;5086990;28;20261;-76
2021/08/22 02:48:58;;;;;;;58.10;46.00;;;;;;;19.96;76.68;101458.53;5089427;28;20962;-76
2021/08/22 02:51:24;;;;;;;62.60;45.87;;;;;;;19.79;77.12;101455.25;5086944;28;20269;-76
2021/08/22 02:53:50;;;;;;;75.47;50.37;;;;;;;19.67;77.63;101460.94;5084388;28;20237;-76
2021/08/22 02:56:18;;;;;;;83.67;51.20;;;;;;;19.84;77.11;101468.03;5087494;28;20695;-76
2021/08/22 02:58:44;;;;;;;81.60;51.50;;;;;;;19.92;76.93;101460.16;5085187;28;20729;-75
2021/08/22 03:01:11;;;;;;;67.17;47.70;;;;;;;20.05;75.99;101468.84;5085072;28;20266;-76
2021/08/22 03:03:39;;;;;;;54.83;42.80;;;;;;;20.02;75.98;101456.63;5084570;28;20238;-76
2021/08/22 03:06:05;;;;;;;57.87;42.73;;;;;;;20.06;75.45;101455.00;5086439;28;20584;-76
2021/08/22 03:08:32;;;;;;;60.60;44.00;;;;;;;19.89;76.76;101451.75;5085753;28;20222;-76
2021/08/22 03:10:58;;;;;;;57.27;42.83;;;;;;;19.85;76.99;101450.66;5086216;28;20236;-76
2021/08/22 03:13:26;;;;;;;50.50;41.37;;;;;;;20.04;76.44;101449.03;5085846;28;20224;-75
2021/08/22 03:15:52;;;;;;;59.60;42.90;;;;;;;20.03;76.46;101449.31;5083333;28;20225;-76
2021/08/22 03:18:18;;;;;;;80.23;47.83;;;;;;;20.14;76.08;101445.50;5084816;28;20252;-75
2021/08/22 03:20:45;;;;;;;69.10;43.83;;;;;;;20.19;75.75;101449.03;5084637;28;20212;-76
2021/08/22 03:23:11;;;;;;;49.43;39.63;;;;;;;20.21;75.46;101448.78;5084210;28;21147;-75
2021/08/22 03:25:38;;;;;;;55.87;39.93;;;;;;;20.12;75.80;101447.69;5084525;28;20206;-75
2021/08/22 03:28:04;;;;;;;48.53;38.00;;;;;;;20.16;74.85;101446.06;5085957;28;20540;-75
2021/08/22 03:30:32;;;;;;;62.70;44.63;;;;;;;20.05;75.94;101442.53;5083910;28;20208;-75
2021/08/22 03:32:58;;;;;;;45.27;37.97;;;;;;;20.16;74.54;101440.63;5083445;28;20644;-76
2021/08/22 03:35:25;;;;;;;42.00;37.30;;;;;;;20.46;73.15;101439.81;5082457;28;20238;-75
2021/08/22 03:37:51;;;;;;;48.47;39.63;;;;;;;20.18;74.76;101436.53;5086121;28;20209;-75
2021/08/22 03:40:18;;;;;;;46.00;38.90;;;;;;;20.08;75.26;101439.28;5085466;28;20266;-75
2021/08/22 03:42:44;;;;;;;49.87;40.27;;;;;;;20.11;75.25;101444.16;5086977;28;20222;-75
2021/08/22 03:45:11;;;;;;;55.40;43.23;;;;;;;19.97;75.78;101441.19;5085101;28;20210;-75
2021/08/22 03:47:38;;;;;;;59.43;43.90;;;;;;;19.90;76.43;101440.63;5085921;28;20217;-75
2021/08/22 03:50:06;;;;;;;46.63;39.67;;;;;;;20.04;75.15;101440.09;5083764;28;20205;-75
2021/08/22 03:52:33;;;;;;;56.73;43.17;;;;;;;19.79;76.69;101433.56;5085094;28;20286;-75
2021/08/22 03:54:59;;;;;;;71.23;47.67;;;;;;;20.06;75.27;101432.47;5084287;28;20221;-75
2021/08/22 03:57:25;;;;;;;78.13;50.87;;;;;;;19.99;76.38;101432.78;5081707;28;20275;-75
2021/08/22 03:59:52;;;;;;;59.27;44.70;;;;;;;19.95;76.86;101427.09;5085744;28;20208;-75
2021/08/22 04:02:20;;;;;;;55.40;43.17;;;;;;;20.06;76.13;101427.88;5084789;28;20298;-75
2021/08/22 04:04:48;;;;;;;94.27;54.27;;;;;;;19.66;78.25;101426.75;5081222;28;20210;-75
2021/08/22 04:07:14;;;;;;;116.80;59.67;;;;;;;19.71;78.26;101425.97;5083697;28;20258;-75
2021/08/22 04:09:41;;;;;;;69.03;48.27;;;;;;;19.69;78.38;101437.09;5082270;28;20233;-75
2021/08/22 04:12:08;;;;;;;89.20;53.77;;;;;;;19.76;77.47;101420.56;5085781;28;20266;-75
2021/08/22 04:14:34;;;;;;;96.40;56.27;;;;;;;19.35;79.32;101427.78;5084512;28;20264;-75
2021/08/22 04:17:00;;;;;;;61.00;46.37;;;;;;;19.25;79.21;101428.53;5084411;28;20313;-75
2021/08/22 04:19:27;;;;;;;60.93;46.10;;;;;;;19.28;78.89;101424.47;5084668;28;20788;-75
2021/08/22 04:21:55;;;;;;;68.73;48.47;;;;;;;19.27;78.90;101422.84;5082615;28;20210;-74
2021/08/22 04:24:21;;;;;;;74.90;51.43;;;;;;;19.31;78.83;101422.06;5080787;28;20620;-75
2021/08/22 04:26:49;;;;;;;99.00;58.17;;;;;;;19.61;78.38;101420.53;5085101;28;20214;-75
2021/08/22 04:29:16;;;;;;;70.80;51.10;;;;;;;19.45;77.97;101421.56;5082191;28;20300;-75
2021/08/22 04:31:43;;;;;;;79.97;61.60;;;;;;;18.98;79.44;101422.50;5081962;28;20493;-78
2021/08/22 04:34:09;;;;;;;81.07;56.10;;;;;;;18.84;80.63;101416.75;5083071;28;20331;-78
2021/08/22 04:36:35;;;;;;;85.50;55.67;;;;;;;19.32;79.66;101418.28;5082013;28;20225;-78
2021/08/22 04:39:03;;;;;;;60.83;48.13;;;;;;;19.82;76.28;101418.66;5082468;28;20225;-78
2021/08/22 04:41:29;;;;;;;80.40;52.57;;;;;;;19.83;76.79;101412.97;5083461;28;20213;-78
2021/08/22 04:43:56;;;;;;;66.33;49.97;;;;;;;19.87;76.23;101424.09;5085464;28;20217;-78
2021/08/22 04:46:22;;;;;;;60.20;45.80;;;;;;;19.99;75.63;101416.50;5087445;28;20208;-79
2021/08/22 04:48:49;;;;;;;78.03;52.90;;;;;;;19.88;76.41;101421.09;5084851;28;20212;-79
2021/08/22 04:51:15;;;;;;;70.00;48.87;;;;;;;19.64;77.29;101431.66;5086145;28;20236;-78
2021/08/22 04:53:42;;;;;;;71.87;50.30;;;;;;;19.34;78.67;101435.09;5083522;28;20224;-78
2021/08/22 04:56:09;;;;;;;77.83;52.67;;;;;;;19.63;77.69;101440.06;5085239;28;20236;-78
2021/08/22 04:58:36;;;;;;;66.63;48.87;;;;;;;19.65;76.95;101443.31;5082844;28;20213;-78
2021/08/22 05:01:03;;;;;;;75.03;51.93;;;;;;;18.66;81.28;101444.25;5082172;28;20665;-78
2021/08/22 05:03:29;;;;;;;85.13;56.10;;;;;;;18.47;82.30;101439.25;5083791;28;20224;-78
2021/08/22 05:05:56;;;;;;;70.03;50.60;;;;;;;18.40;82.94;101449.47;5080057;28;20258;-78
2021/08/22 05:08:22;;;;;;;80.33;53.87;;;;;;;18.79;81.00;101441.88;5084808;28;20220;-78
2021/08/22 05:10:49;;;;;;;63.63;49.30;;;;;;;19.09;79.83;101443.94;5083085;28;20662;-79
2021/08/22 05:13:17;;;;;;;69.70;52.90;;;;;;;19.06;79.46;101443.66;5087086;28;20208;-78
2021/08/22 05:15:43;;;;;;;67.73;49.93;;;;;;;18.93;80.83;101450.38;5085047;28;20586;-78
2021/08/22 05:18:10;;;;;;;71.67;51.00;;;;;;;19.08;80.24;101450.44;5084865;28;20228;-78
2021/08/22 05:20:36;;;;;;;66.03;47.90;;;;;;;18.96;81.31;101449.03;5082055;28;20628;-78
2021/08/22 05:23:03;;;;;;;62.23;45.50;;;;;;;18.83;81.11;101442.19;5083140;28;20303;-78
2021/08/22 05:25:29;;;;;;;60.80;44.10;;;;;;;18.75;81.98;101439.97;5083051;28;20231;-78
2021/08/22 05:27:55;;;;;;;62.03;43.77;;;;;;;18.60;82.37;101446.09;5082438;28;20217;-78
2021/08/22 05:30:23;;;;;;;54.37;40.67;;;;;;;18.72;82.29;101435.09;5084194;28;20213;-78
2021/08/22 05:32:50;;;;;;;44.27;36.87;;;;;;;18.74;81.86;101432.94;5082840;28;20211;-78
2021/08/22 05:35:16;;;;;;;46.67;37.00;;;;;;;18.69;81.81;101432.91;5081572;28;20224;-78
2021/08/22 05:37:43;;;;;;;42.13;34.40;;;;;;;18.60;82.27;101437.16;5083249;28;21279;-77
2021/08/22 05:40:10;;;;;;;29.43;26.20;;;;;;;18.38;83.07;101434.56;5083827;28;20225;-75
2021/08/22 05:42:37;;;;;;;25.27;20.43;;;;;;;18.11;83.69;101437.34;5081414;28;20607;-76
2021/08/22 05:45:04;;;;;;;21.17;19.00;;;;;;;18.19;83.65;101440.41;5081124;28;20205;-76
2021/08/22 05:47:32;;;;;;;21.27;19.07;;;;;;;18.44;82.59;101438.97;5082941;28;20429;-76
2021/08/22 05:49:58;;;;;;;17.93;16.13;;;;;;;18.62;81.48;101437.72;5080381;28;20575;-76
2021/08/22 05:52:24;;;;;;;18.20;16.33;;;;;;;18.66;80.86;101441.53;5080768;28;20209;-76
2021/08/22 05:54:51;;;;;;;18.00;16.30;;;;;;;18.75;80.83;101440.78;5080406;28;20867;-76
2021/08/22 05:57:17;;;;;;;19.50;17.43;;;;;;;18.91;80.26;101438.16;5081627;28;20702;-76
2021/08/22 05:59:44;;;;;;;19.73;17.83;;;;;;;19.11;80.06;101449.91;5082996;28;20269;-76
2021/08/22 06:02:10;;;;;;;20.97;18.10;;;;;;;19.00;80.03;101452.81;5080602;28;20217;-76
2021/08/22 06:04:38;;;;;;;17.70;16.00;;;;;;;19.06;80.30;101458.03;5079995;28;20647;-78
2021/08/22 06:07:05;;;;;;;17.50;15.87;;;;;;;18.91;80.64;101447.09;5083842;28;20220;-78
2021/08/22 06:09:31;;;;;;;16.77;15.07;;;;;;;18.68;81.23;101456.47;5080791;28;20235;-78
2021/08/22 06:11:59;;;;;;;18.97;16.87;;;;;;;18.44;82.34;101466.84;5079578;28;20211;-76
2021/08/22 06:14:26;;;;;;;16.03;14.53;;;;;;;18.85;81.45;101456.28;5082055;28;20578;-77
2021/08/22 06:16:52;;;;;;;16.03;14.53;;;;;;;18.95;80.84;101467.16;5082888;28;21138;-78
2021/08/22 06:19:19;;;;;;;16.17;14.67;;;;;;;18.90;81.16;101467.13;5081469;28;20266;-78
2021/08/22 06:21:47;;;;;;;15.90;14.40;;;;;;;18.67;81.87;101472.94;5082768;28;20219;-77
2021/08/22 06:24:13;;;;;;;16.87;15.23;;;;;;;18.49;82.01;101469.56;5081373;28;20239;-78
2021/08/22 06:26:40;;;;;;;16.67;15.07;;;;;;;18.46;82.06;101469.28;5080099;28;20266;-78
2021/08/22 06:29:06;;;;;;;16.53;14.93;;;;;;;18.51;82.51;101466.59;5080437;28;20219;-78
2021/08/22 06:31:32;;;;;;;16.03;14.53;;;;;;;18.47;82.58;101471.72;5082078;28;20218;-78
2021/08/22 06:33:59;;;;;;;17.27;15.77;;;;;;;18.79;81.80;101466.25;5081198;28;20242;-78
2021/08/22 06:36:26;;;;;;;16.93;15.43;;;;;;;18.95;81.37;101463.66;5081985;28;20333;-78
2021/08/22 06:38:53;;;;;;;17.33;15.67;;;;;;;19.31;80.15;101459.16;5082814;28;20243;-78
2021/08/22 06:41:20;;;;;;;15.40;13.90;;;;;;;19.21;79.70;101462.69;5083557;28;20219;-78
2021/08/22 06:43:46;;;;;;;15.47;13.97;;;;;;;19.51;78.76;101464.66;5082411;28;20240;-78
2021/08/22 06:46:13;;;;;;;14.93;13.63;;;;;;;19.81;78.58;101460.41;5082505;28;20291;-78
2021/08/22 06:48:39;;;;;;;15.60;14.10;;;;;;;19.44;79.00;101474.13;5085951;28;20208;-78
2021/08/22 06:51:05;;;;;;;17.87;16.17;;;;;;;19.55;79.65;101473.91;5083525;28;20222;-78
2021/08/22 06:53:32;;;;;;;16.60;15.00;;;;;;;19.65;79.22;101471.22;5084883;28;20684;-79
2021/08/22 06:56:00;;;;;;;19.30;17.37;;;;;;;19.51;79.93;101470.09;5083465;28;20242;-79
2021/08/22 06:58:26;;;;;;;21.03;18.93;;;;;;;19.50;79.22;101467.63;5081072;28;20640;-78
2021/08/22 07:00:52;;;;;;;22.70;20.37;;;;;;;19.27;79.90;101471.63;5086038;28;20228;-79
2021/08/22 07:03:19;;;;;;;22.17;19.83;;;;;;;19.49;79.99;101466.00;5085208;28;20213;-78
2021/08/22 07:05:45;;;;;;;21.57;19.37;;;;;;;19.04;81.01;101467.47;5084279;28;20338;-78
2021/08/22 07:08:12;;;;;;;21.67;19.57;;;;;;;19.25;80.46;101471.09;5088117;28;20221;-78
2021/08/22 07:10:39;;;;;;;23.77;21.37;;;;;;;19.26;80.37;101475.41;5065500;28;20683;-79
2021/08/22 07:13:06;;;;;;;24.30;21.90;;;;;;;19.13;80.17;101473.19;5086167;28;20217;-79
2021/08/22 07:15:33;;;;;;;26.17;23.37;;;;;;;19.15;80.28;101471.84;5089708;28;20960;-79
2021/08/22 07:18:00;;;;;;;26.17;23.37;;;;;;;19.34;79.79;101472.22;5086143;28;20248;-79
2021/08/22 07:20:26;;;;;;;24.10;21.80;;;;;;;19.78;78.98;101469.09;5089114;28;20277;-79
2021/08/22 07:22:53;;;;;;;23.37;21.10;;;;;;;19.71;79.27;101480.19;5088475;28;20220;-79
2021/08/22 07:25:21;;;;;;;24.20;21.87;;;;;;;19.63;78.56;101481.53;5088017;28;20218;-79
2021/08/22 07:27:47;;;;;;;24.47;22.07;;;;;;;20.06;77.05;101482.13;5088282;28;20202;-78
2021/08/22 07:30:15;;;;;;;22.97;20.77;;;;;;;20.05;77.70;101480.50;5088003;28;20217;-80
2021/08/22 07:32:42;;;;;;;20.23;18.33;;;;;;;19.74;76.98;101478.84;5083119;28;20206;-80
2021/08/22 07:35:09;;;;;;;21.23;19.23;;;;;;;19.99;77.91;101479.69;5087611;28;20209;-80
2021/08/22 07:37:35;;;;;;;21.70;19.70;;;;;;;20.19;76.45;101478.88;5089911;28;20304;-79
2021/08/22 07:40:02;;;;;;;20.77;18.67;;;;;;;19.62;77.46;101484.50;5087856;28;20250;-78
2021/08/22 07:42:29;;;;;;;20.27;18.30;;;;;;;19.37;79.27;101483.31;5086605;28;20210;-79
2021/08/22 07:44:56;;;;;;;18.90;17.20;;;;;;;19.52;78.31;101482.56;5088204;28;20262;-79
2021/08/22 07:47:24;;;;;;;19.73;17.80;;;;;;;20.08;77.58;101481.88;5090735;28;20217;-80
2021/08/22 07:49:51;;;;;;;18.90;16.97;;;;;;;20.38;76.20;101489.19;5084139;28;20209;-80
2021/08/22 07:52:17;;;;;;;18.60;16.80;;;;;;;20.34;75.65;101482.69;5087744;28;20213;-79
2021/08/22 07:54:43;;;;;;;16.40;14.80;;;;;;;20.75;74.81;101480.75;5087976;28;20239;-81
2021/08/22 07:57:10;;;;;;;16.70;15.00;;;;;;;20.67;73.90;101492.97;5088462;28;20237;-80
2021/08/22 07:59:36;;;;;;;14.77;13.43;;;;;;;20.95;73.43;101490.75;5088084;28;20727;-81
2021/08/22 08:02:03;;;;;;;16.50;14.50;;;;;;;20.57;74.72;101498.41;5088735;28;20220;-80
2021/08/22 08:04:30;;;;;;;14.63;13.30;;;;;;;19.94;76.62;101492.41;5087446;28;20205;-81
2021/08/22 08:06:57;;;;;;;14.63;13.33;;;;;;;19.98;77.05;101488.09;5090369;28;20569;-80
2021/08/22 08:09:23;;;;;;;12.23;11.13;;;;;;;20.03;75.51;101500.84;5090053;28;21571;-81
2021/08/22 08:11:50;;;;;;;11.90;10.80;;;;;;;20.07;75.53;101499.22;5089962;28;20270;-80
2021/08/22 08:14:16;;;;;;;14.23;10.63;;;;;;;19.88;76.40;101498.94;5089229;28;20229;-80
2021/08/22 08:16:42;;;;;;;11.60;10.53;;;;;;;19.88;76.08;101496.22;5088292;28;20209;-81
2021/08/22 08:19:09;;;;;;;11.07;9.97;;;;;;;20.42;75.06;101495.72;5094496;28;20208;-80
2021/08/22 08:21:37;;;;;;;11.67;10.60;;;;;;;20.35;75.09;101492.47;5089680;28;20213;-81
2021/08/22 08:24:04;;;;;;;12.00;10.80;;;;;;;20.46;75.13;101480.53;5086205;28;20226;-81
2021/08/22 08:26:31;;;;;;;11.13;10.10;;;;;;;20.92;74.17;101483.16;5092394;28;20221;-82
2021/08/22 08:28:57;;;;;;;9.83;9.03;;;;;;;20.38;74.75;101484.59;5088679;28;20220;-80
2021/08/22 08:31:24;;;;;;;9.20;8.40;;;;;;;20.56;73.99;101488.66;5090206;28;20205;-80
2021/08/22 08:33:51;;;;;;;8.47;7.67;;;;;;;20.37;75.39;101485.66;5089411;28;20212;-82
2021/08/22 08:36:17;;;;;;;7.23;6.63;;;;;;;20.82;71.74;101481.28;5089452;28;20220;-82
2021/08/22 08:38:45;;;;;;;8.47;7.67;;;;;;;20.86;73.18;101491.31;5090534;28;21141;-81
2021/08/22 08:41:12;;;;;;;7.10;6.40;;;;;;;20.74;71.28;101493.53;5089637;28;20209;-79
2021/08/22 08:43:38;;;;;;;7.23;6.60;;;;;;;21.03;71.24;101493.72;5090137;28;20672;-80
2021/08/22 08:46:06;;;;;;;6.07;5.47;;;;;;;21.19;70.15;101494.47;5090901;28;20220;-80
2021/08/22 08:48:35;;;;;;;6.90;6.23;;;;;;;21.25;70.36;101507.00;5092489;28;21323;-80
2021/08/22 08:51:14;;;;;;;6.80;6.20;;;;;;;21.22;69.78;101506.72;5091311;28;21466;-80
2021/08/22 08:53:42;;;;;;;5.80;5.20;;;;;;;21.18;70.67;101509.16;5088455;28;20225;-80
2021/08/22 08:56:10;;;;;;;6.70;5.80;;;;;;;20.78;71.39;101515.50;5092939;28;20625;-82
2021/08/22 08:58:37;;;;;;;6.90;5.83;;;;;;;20.54;73.19;101512.56;5088093;28;20245;-80
2021/08/22 09:01:03;;;;;;;6.83;6.13;;;;;;;20.36;73.37;101513.09;5088993;28;20213;-81
2021/08/22 09:03:30;;;;;;;8.87;6.63;;;;;;;20.26;75.56;101516.59;5087625;28;20214;-81
2021/08/22 09:06:24;;;;;;;9.33;8.20;;;;;;;20.36;74.61;101522.03;5085779;28;20222;-80
2021/08/22 09:09:29;;;;;;;7.47;6.67;;;;;;;20.33;74.42;101517.16;5087769;28;20221;-81
2021/08/22 09:12:41;;;;;;;7.37;6.73;;;;;;;20.25;74.65;101523.13;5088123;28;20663;-81
2021/08/22 09:15:54;;;;;;;9.07;7.90;;;;;;;20.13;74.88;101523.38;5087626;28;20226;-80
2021/08/22 09:18:58;;;;;;;8.00;7.27;;;;;;;20.00;75.40;101518.47;5085027;28;20244;-80
2021/08/22 09:21:55;;;;;;;9.20;8.30;;;;;;;20.16;75.45;101517.41;5085965;28;20571;-79
2021/08/22 09:25:00;;;;;;;9.33;8.53;;;;;;;20.12;75.91;101524.47;5078548;28;20233;-79
2021/08/22 09:28:00;;;;;;;9.57;8.63;;;;;;;20.40;74.96;101525.84;5088379;28;20217;-79
2021/08/22 09:31:04;;;;;;;10.10;7.90;;;;;;;20.28;75.07;101517.16;5091656;28;20223;-79
2021/08/22 09:33:57;;;;;;;8.17;7.47;;;;;;;19.89;75.05;101514.94;5089063;28;20788;-79
2021/08/22 09:37:05;;;;;;;9.60;8.53;;;;;;;20.23;75.59;101517.16;5090166;28;21116;-79
2021/08/22 09:40:21;;;;;;;9.60;8.70;;;;;;;20.23;75.44;101501.69;5087430;28;20225;-79
2021/08/22 09:43:21;;;;;;;8.87;8.07;;;;;;;20.10;75.30;101498.69;5008447;28;20254;-80
2021/08/22 09:46:27;;;;;;;9.50;8.67;;;;;;;20.46;74.36;101502.25;5046124;28;20217;-81
2021/08/22 09:49:30;;;;;;;9.30;8.40;;;;;;;21.28;73.07;101492.84;5092191;28;20258;-81
2021/08/22 09:52:35;;;;;;;9.83;7.77;;;;;;;21.19;72.12;101504.53;5089703;28;20217;-80
2021/08/22 09:55:39;;;;;;;10.47;9.47;;;;;;;20.43;74.11;101498.16;5092457;28;20213;-81
2021/08/22 09:58:51;;;;;;;12.43;9.80;;;;;;;20.66;74.48;101504.13;5090273;28;20236;-81
2021/08/22 10:01:50;;;;;;;10.00;9.07;;;;;;;20.39;75.12;101510.63;5089210;28;20232;-80
2021/08/22 10:04:41;;;;;;;10.80;9.70;;;;;;;21.03;72.41;101507.28;5093460;28;20311;-81
2021/08/22 10:07:22;;;;;;;9.10;8.27;;;;;;;21.15;71.80;101502.38;5093937;28;20217;-84
2021/08/22 10:09:53;;;;;;;9.27;8.37;;;;;;;21.39;71.38;101513.44;5092093;28;20295;-81
2021/08/22 10:12:19;;;;;;;8.10;7.40;;;;;;;21.73;69.64;101510.03;5095070;28;20230;-82
2021/08/22 10:14:46;;;;;;;8.93;8.13;;;;;;;21.96;69.10;101514.75;5092289;28;20249;-81
2021/08/22 10:17:19;;;;;;;7.83;7.13;;;;;;;22.41;68.60;101507.34;5093329;28;20241;-82
2021/08/22 10:19:47;;;;;;;7.73;7.03;;;;;;;22.56;67.06;101507.22;5095781;28;20230;-81
2021/08/22 10:22:16;;;;;;;7.83;7.13;;;;;;;21.80;69.07;101515.13;5092835;28;20557;-82
2021/08/22 10:24:45;;;;;;;6.63;5.40;;;;;;;21.77;69.12;101515.69;5094513;28;20256;-82
2021/08/22 10:27:12;;;;;;;7.77;5.87;;;;;;;21.11;70.25;101514.88;5094958;28;20212;-80
2021/08/22 10:30:08;;;;;;;7.33;6.53;;;;;;;21.35;71.33;101514.28;5093320;28;20534;-81
2021/08/22 10:33:16;;;;;;;7.43;6.43;;;;;;;21.77;68.30;101504.81;5095426;28;20218;-81
2021/08/22 10:35:43;;;;;;;5.00;4.60;;;;;;;21.35;68.47;101504.22;5094696;28;20216;-79
2021/08/22 10:38:20;;;;;;;6.37;5.77;;;;;;;21.87;68.75;101502.84;5095032;28;20236;-85
2021/08/22 10:40:47;;;;;;;6.10;5.33;;;;;;;21.60;68.61;101505.19;5099182;28;20216;-81
2021/08/22 10:43:45;;;;;;;5.53;5.03;;;;;;;21.31;69.44;101500.44;5094916;28;20209;-80
2021/08/22 10:46:14;;;;;;;4.70;4.30;;;;;;;21.31;68.94;101497.69;5037919;28;20218;-80
2021/08/22 10:48:54;;;;;;;5.20;4.70;;;;;;;21.53;68.90;101508.22;5081173;28;20220;-83
2021/08/22 10:51:21;;;;;;;6.93;5.00;;;;;;;21.67;68.18;101490.19;5094113;28;20269;-80
2021/08/22 10:53:50;;;;;;;3.97;3.60;;;;;;;22.24;65.79;101490.63;5092672;28;20226;-80
2021/08/22 10:56:36;;;;;;;5.20;4.53;;;;;;;22.23;66.70;101489.84;5095326;28;21386;-80
2021/08/22 10:59:04;;;;;;;4.50;4.10;;;;;;;21.58;68.80;101494.56;5093467;28;20229;-79
2021/08/22 11:01:31;;;;;;;4.23;3.80;;;;;;;20.96;70.03;101503.22;5090040;28;20217;-80
2021/08/22 11:04:03;;;;;;;6.27;4.23;;;;;;;20.61;70.21;101501.44;5090832;28;20694;-80
2021/08/22 11:06:30;;;;;;;5.07;4.57;;;;;;;21.13;70.53;101509.19;5094436;28;20247;-80
2021/08/22 11:08:56;;;;;;;4.27;3.97;;;;;;;21.15;68.65;101509.72;5092027;28;20218;-78
2021/08/22 11:11:23;;;;;;;4.27;3.87;;;;;;;21.44;69.16;101515.31;5095319;28;20217;-81
2021/08/22 11:13:53;;;;;;;3.40;3.10;;;;;;;21.20;68.12;101523.25;5094307;28;20592;-80
2021/08/22 11:16:19;;;;;;;3.90;3.50;;;;;;;21.15;67.20;101520.56;5092137;28;20216;-79
2021/08/22 11:18:47;;;;;;;3.77;3.33;;;;;;;21.03;67.89;101528.22;5093873;28;20241;-80
2021/08/22 11:21:15;;;;;;;4.70;4.30;;;;;;;21.15;69.00;101515.94;5095683;28;20232;-80
2021/08/22 11:23:41;;;;;;;4.37;3.73;;;;;;;21.03;69.48;101523.59;5092291;28;21260;-79
2021/08/22 11:26:09;;;;;;;5.70;4.77;;;;;;;20.58;70.81;101524.47;5091671;28;20231;-79